createdAt,value
2019-04-26T00:02:16.928Z,61.74
2019-04-26T00:04:50.613Z,62.21
2019-04-26T00:07:24.325Z,60.15
2019-04-26T00:10:00.576Z,54.02
2019-04-26T00:12:48.764Z,55.31
2019-04-26T00:15:54.504Z,57.02
2019-04-26T00:18:27.979Z,58.32
2019-04-26T00:21:01.451Z,59.18
2019-04-26T00:23:34.893Z,59.91
2019-04-26T00:26:08.547Z,60.50
2019-04-26T00:28:41.936Z,61.08
2019-04-26T00:31:15.264Z,61.75
2019-04-26T00:33:49.223Z,62.34
2019-04-26T00:36:22.915Z,60.24
2019-04-26T00:38:56.367Z,51.17
2019-04-26T00:41:30.311Z,48.47
2019-04-26T00:44:04.858Z,50.82
2019-04-26T00:46:40.612Z,52.91
2019-04-26T00:49:15.501Z,54.38
2019-04-26T00:51:49.583Z,55.39
2019-04-26T00:54:24.374Z,56.39
2019-04-26T00:56:58.173Z,57.39
2019-04-26T00:59:32.278Z,58.13
2019-04-26T01:02:14.148Z,58.90
2019-04-26T01:04:48.685Z,59.71
2019-04-26T01:07:23.210Z,60.36
2019-04-26T01:09:56.749Z,60.97
2019-04-26T01:12:32.301Z,61.44
2019-04-26T01:15:06.031Z,61.92
2019-04-26T01:17:39.673Z,62.50
2019-04-26T01:20:14.169Z,60.90
2019-04-26T01:22:51.952Z,52.39
2019-04-26T01:26:06.247Z,49.71
2019-04-26T01:28:49.541Z,52.39
2019-04-26T01:31:23.934Z,54.23
2019-04-26T01:33:57.524Z,55.58
2019-04-26T01:36:32.677Z,56.61
2019-04-26T01:39:21.287Z,57.42
2019-04-26T01:42:03.068Z,58.19
2019-04-26T01:45:10.788Z,59.05
2019-04-26T01:47:44.719Z,60.08
2019-04-26T01:50:18.809Z,60.80
2019-04-26T01:52:52.509Z,61.37
2019-04-26T01:55:29.189Z,62.07
2019-04-26T01:58:07.722Z,62.32
2019-04-26T02:00:52.143Z,60.04
2019-04-26T02:03:29.833Z,54.45
2019-04-26T02:06:03.245Z,55.74
2019-04-26T02:08:36.615Z,57.13
2019-04-26T02:11:10.049Z,58.42
2019-04-26T02:13:43.613Z,59.45
2019-04-26T02:16:17.071Z,60.23
2019-04-26T02:18:50.468Z,60.86
2019-04-26T02:21:34.996Z,61.36
2019-04-26T02:24:23.920Z,61.81
2019-04-26T02:26:58.641Z,62.42
2019-04-26T02:29:32.716Z,60.56
2019-04-26T02:32:09.250Z,50.82
2019-04-26T02:34:43.103Z,48.53
2019-04-26T02:37:18.386Z,51.06
2019-04-26T02:39:53.719Z,53.07
2019-04-26T02:42:46.799Z,54.55
2019-04-26T02:46:19.036Z,55.87
2019-04-26T02:49:27.504Z,57.26
2019-04-26T02:52:37.250Z,58.34
2019-04-26T02:55:38.656Z,59.42
2019-04-26T02:58:08.775Z,60.14
2019-04-26T03:00:42.434Z,60.80
2019-04-26T03:03:17.811Z,61.38
2019-04-26T03:05:52.929Z,61.96
2019-04-26T03:08:29.853Z,62.53
2019-04-26T03:11:18.158Z,60.31
2019-04-26T03:14:13.387Z,54.38
2019-04-26T03:17:02.791Z,55.75
2019-04-26T03:19:52.373Z,57.33
2019-04-26T03:23:03.583Z,58.63
2019-04-26T03:26:25.073Z,59.72
2019-04-26T03:29:23.369Z,60.69
2019-04-26T03:33:11.509Z,61.23
2019-04-26T03:36:21.585Z,62.21
2019-04-26T03:39:15.581Z,58.67
2019-04-26T03:42:35.191Z,53.76
2019-04-26T03:45:42.445Z,55.86
2019-04-26T03:49:04.628Z,57.58
2019-04-26T03:52:00.790Z,58.94
2019-04-26T03:54:37.964Z,60.09
2019-04-26T03:57:29.907Z,61.01
2019-04-26T04:00:51.763Z,61.70
2019-04-26T04:04:02.447Z,62.54
2019-04-26T04:06:56.711Z,58.82
2019-04-26T04:09:12.811Z,53.63
2019-04-26T04:12:10.225Z,55.19
2019-04-26T04:14:49.054Z,56.96
2019-04-26T04:17:38.711Z,58.42
2019-04-26T04:21:06.167Z,59.69
2019-04-26T04:24:32.320Z,60.57
2019-04-26T04:27:53.735Z,61.53
2019-04-26T04:31:03.582Z,62.38
2019-04-26T04:34:20.887Z,58.73
2019-04-26T04:36:59.153Z,53.86
2019-04-26T04:39:46.502Z,55.69
2019-04-26T04:43:08.477Z,57.19
2019-04-26T04:47:22.268Z,58.46
2019-04-26T04:50:12.325Z,59.93
2019-04-26T04:53:25.997Z,60.61
2019-04-26T04:57:04.479Z,61.23
2019-04-26T05:00:55.139Z,61.94
2019-04-26T05:03:56.547Z,63.02
2019-04-26T05:07:25.208Z,58.81
2019-04-26T05:10:34.779Z,53.37
2019-04-26T05:13:36.043Z,55.58
2019-04-26T05:17:10.592Z,57.21
2019-04-26T05:20:51.582Z,58.90
2019-04-26T05:24:08.857Z,59.40
2019-04-26T05:28:09.584Z,60.01
2019-04-26T05:31:26.472Z,60.70
2019-04-26T05:34:44.254Z,61.41
2019-04-26T05:37:59.334Z,62.15
2019-04-26T05:41:14.343Z,62.84
2019-04-26T05:44:23.246Z,58.24
2019-04-26T05:47:46.571Z,53.38
2019-04-26T05:51:06.755Z,55.91
2019-04-26T05:54:41.704Z,57.32
2019-04-26T05:58:26.525Z,58.84
2019-04-26T06:02:09.043Z,60.18
2019-04-26T06:05:02.221Z,60.45
2019-04-26T06:08:04.586Z,61.16
2019-04-26T06:11:03.435Z,61.38
2019-04-26T06:14:31.771Z,62.81
2019-04-26T06:17:44.978Z,56.68
2019-04-26T06:20:41.910Z,52.01
2019-04-26T06:23:41.627Z,52.77
2019-04-26T06:26:44.645Z,54.31
2019-04-26T06:29:29.614Z,54.88
2019-04-26T06:32:21.113Z,55.05
2019-04-26T06:35:16.045Z,55.12
2019-04-26T06:39:07.743Z,55.18
2019-04-26T06:42:27.021Z,56.31
2019-04-26T06:45:41.461Z,55.75
2019-04-26T06:48:57.042Z,56.14
2019-04-26T06:51:39.844Z,55.75
2019-04-26T06:55:27.431Z,55.95
2019-04-26T06:58:54.478Z,55.11
2019-04-26T07:02:01.369Z,54.42
2019-04-26T07:05:15.271Z,54.36
2019-04-26T07:09:02.705Z,54.81
2019-04-26T07:12:32.938Z,55.19
2019-04-26T07:16:17.975Z,54.36
2019-04-26T07:19:21.318Z,53.40
2019-04-26T07:22:37.757Z,53.06
2019-04-26T07:26:14.599Z,52.87
2019-04-26T07:29:56.214Z,52.35
2019-04-26T07:33:08.421Z,51.43
2019-04-26T07:36:22.818Z,50.94
2019-04-26T07:40:25.903Z,50.71
2019-04-26T07:44:31.707Z,49.43
2019-04-26T07:48:18.440Z,49.87
2019-04-26T07:51:45.637Z,48.42
2019-04-26T07:55:24.622Z,47.70
2019-04-26T07:59:12.861Z,46.87
2019-04-26T08:02:46.566Z,46.29
2019-04-26T08:05:36.756Z,45.92
2019-04-26T08:08:17.124Z,45.64
2019-04-26T08:11:14.899Z,46.11
2019-04-26T08:14:18.134Z,45.62
2019-04-26T08:17:30.750Z,44.12
2019-04-26T08:20:28.207Z,43.10
2019-04-26T08:23:08.967Z,43.39
2019-04-26T08:25:42.999Z,43.65
2019-04-26T08:28:19.799Z,43.40
2019-04-26T08:30:55.760Z,42.12
2019-04-26T08:33:36.405Z,41.54
2019-04-26T08:36:12.779Z,42.36
2019-04-26T08:38:48.775Z,41.77
2019-04-26T08:41:24.991Z,41.43
2019-04-26T08:44:19.113Z,40.45
2019-04-26T08:47:16.414Z,41.66
2019-04-26T08:50:11.102Z,40.37
2019-04-26T08:52:45.508Z,39.81
2019-04-26T08:55:21.831Z,39.43
2019-04-26T08:57:58.900Z,39.36
2019-04-26T09:00:44.497Z,38.78
2019-04-26T09:03:28.979Z,38.52
2019-04-26T09:06:27.705Z,39.35
2019-04-26T09:09:14.312Z,38.31
2019-04-26T09:11:59.505Z,38.58
2019-04-26T09:14:29.645Z,37.57
2019-04-26T09:17:03.018Z,37.41
2019-04-26T09:19:37.119Z,38.40
2019-04-26T09:22:35.191Z,37.68
2019-04-26T09:25:34.462Z,37.62
2019-04-26T09:28:22.429Z,37.87
2019-04-26T09:31:06.411Z,37.82
2019-04-26T09:33:52.686Z,37.32
2019-04-26T09:36:26.106Z,37.32
2019-04-26T09:38:59.478Z,37.36
2019-04-26T09:41:32.951Z,37.04
2019-04-26T09:44:25.110Z,36.29
2019-04-26T09:47:14.192Z,36.62
2019-04-26T09:49:54.072Z,36.10
2019-04-26T09:52:31.049Z,36.12
2019-04-26T09:55:04.444Z,36.15
2019-04-26T09:57:37.846Z,35.99
2019-04-26T10:00:17.242Z,37.56
2019-04-26T10:02:50.612Z,35.85
2019-04-26T10:05:23.974Z,35.46
2019-04-26T10:07:58.301Z,35.74
2019-04-26T10:10:35.363Z,35.03
2019-04-26T10:13:29.646Z,35.07
2019-04-26T10:16:21.738Z,35.76
2019-04-26T10:19:00.479Z,34.83
2019-04-26T10:21:33.955Z,35.01
2019-04-26T10:24:08.558Z,35.26
2019-04-26T10:26:42.280Z,35.34
2019-04-26T10:29:15.798Z,35.27
2019-04-26T10:31:51.845Z,35.01
2019-04-26T10:34:24.268Z,34.92
2019-04-26T10:37:01.689Z,34.53
2019-04-26T10:39:33.911Z,34.59
2019-04-26T10:42:07.880Z,34.45
2019-04-26T10:44:41.328Z,34.27
2019-04-26T10:47:15.796Z,34.25
2019-04-26T10:49:54.464Z,33.19
2019-04-26T10:52:45.688Z,33.79
2019-04-26T10:55:52.803Z,33.00
2019-04-26T10:58:48.034Z,32.90
2019-04-26T11:01:21.805Z,32.79
2019-04-26T11:03:55.451Z,32.28
2019-04-26T11:06:29.926Z,32.77
2019-04-26T11:09:03.435Z,32.06
2019-04-26T11:11:38.805Z,32.45
2019-04-26T11:14:12.432Z,31.87
2019-04-26T11:16:46.031Z,32.43
2019-04-26T11:19:19.580Z,31.25
2019-04-26T11:21:54.882Z,31.15
2019-04-26T11:24:27.877Z,31.77
2019-04-26T11:27:05.290Z,31.40
2019-04-26T11:29:36.749Z,32.15
2019-04-26T11:32:10.747Z,31.54
2019-04-26T11:34:44.267Z,31.55
2019-04-26T11:37:19.284Z,31.02
2019-04-26T11:39:52.867Z,31.19
2019-04-26T11:42:26.192Z,31.22
2019-04-26T11:45:05.943Z,31.67
2019-04-26T11:47:37.182Z,30.93
2019-04-26T11:50:12.485Z,30.31
2019-04-26T11:52:45.942Z,30.27
2019-04-26T11:55:20.382Z,30.18
2019-04-26T11:57:53.722Z,29.57
2019-04-26T12:00:58.599Z,29.86
2019-04-26T12:03:33.334Z,31.00
2019-04-26T12:06:25.428Z,30.12
2019-04-26T12:09:05.502Z,30.15
2019-04-26T12:11:48.891Z,30.33
2019-04-26T12:14:20.542Z,30.67
2019-04-26T12:16:51.532Z,30.84
2019-04-26T12:19:24.159Z,30.33
2019-04-26T12:21:57.612Z,29.94
2019-04-26T12:24:34.380Z,29.53
2019-04-26T12:27:06.241Z,29.70
2019-04-26T12:29:39.911Z,29.71
2019-04-26T12:32:17.183Z,29.39
2019-04-26T12:34:49.553Z,30.10
2019-04-26T12:37:23.026Z,29.06
2019-04-26T12:39:58.864Z,30.13
2019-04-26T12:42:32.970Z,29.85
2019-04-26T12:45:27.599Z,29.18
2019-04-26T12:48:04.199Z,28.30
2019-04-26T12:50:38.177Z,28.85
2019-04-26T12:53:22.374Z,29.08
2019-04-26T12:56:00.025Z,28.29
2019-04-26T12:58:34.799Z,27.73
2019-04-26T13:01:12.106Z,29.61
2019-04-26T13:03:46.695Z,27.47
2019-04-26T13:06:20.339Z,28.26
2019-04-26T13:08:56.103Z,28.21
2019-04-26T13:11:57.913Z,28.52
2019-04-26T13:14:42.871Z,27.55
2019-04-26T13:17:18.101Z,27.27
2019-04-26T13:19:54.014Z,27.63
2019-04-26T13:22:26.383Z,27.06
2019-04-26T13:24:59.714Z,27.82
2019-04-26T13:27:33.191Z,28.24
2019-04-26T13:30:10.598Z,27.82
2019-04-26T13:32:45.210Z,27.53
2019-04-26T13:35:18.683Z,27.97
2019-04-26T13:37:52.042Z,27.97
2019-04-26T13:40:25.651Z,27.68
2019-04-26T13:42:59.265Z,26.32
2019-04-26T13:45:43.723Z,27.40
2019-04-26T13:48:35.242Z,27.21
2019-04-26T13:51:09.951Z,26.54
2019-04-26T13:53:44.751Z,26.18
2019-04-26T13:56:18.234Z,27.27
2019-04-26T13:58:54.330Z,26.90
2019-04-26T14:01:26.697Z,27.80
2019-04-26T14:04:02.448Z,27.93
2019-04-26T14:06:36.301Z,27.91
2019-04-26T14:09:13.495Z,27.53
2019-04-26T14:11:46.808Z,28.77
2019-04-26T14:14:20.441Z,28.18
2019-04-26T14:16:55.725Z,28.22
2019-04-26T14:19:28.723Z,28.25
2019-04-26T14:22:03.153Z,29.22
2019-04-26T14:24:44.539Z,28.21
2019-04-26T14:27:24.771Z,28.38
2019-04-26T14:30:18.463Z,28.19
2019-04-26T14:32:57.376Z,28.23
2019-04-26T14:35:32.048Z,27.62
2019-04-26T14:38:05.411Z,27.75
2019-04-26T14:40:39.313Z,28.16
2019-04-26T14:43:13.773Z,28.78
2019-04-26T14:45:55.607Z,28.79
2019-04-26T14:48:35.105Z,28.89
2019-04-26T14:51:07.408Z,28.85
2019-04-26T14:53:36.461Z,28.46
2019-04-26T14:56:08.478Z,29.05
2019-04-26T14:58:42.306Z,28.78
2019-04-26T15:01:28.467Z,29.17
2019-04-26T15:04:29.248Z,28.70
2019-04-26T15:07:05.489Z,29.26
2019-04-26T15:09:37.783Z,29.20
2019-04-26T15:12:14.027Z,29.81
2019-04-26T15:14:49.363Z,29.29
2019-04-26T15:17:24.880Z,29.41
2019-04-26T15:19:57.388Z,28.88
2019-04-26T15:22:30.829Z,30.06
2019-04-26T15:25:07.692Z,30.10
2019-04-26T15:27:39.368Z,30.08
2019-04-26T15:30:14.320Z,29.31
2019-04-26T15:32:47.704Z,30.43
2019-04-26T15:35:23.086Z,30.91
2019-04-26T15:37:57.483Z,29.94
2019-04-26T15:41:11.574Z,30.13
2019-04-26T15:44:00.796Z,30.17
2019-04-26T15:46:59.056Z,30.23
2019-04-26T15:49:39.025Z,30.82
2019-04-26T15:52:12.499Z,31.06
2019-04-26T15:54:46.013Z,30.02
2019-04-26T15:57:19.439Z,30.44
2019-04-26T15:59:54.386Z,30.32
2019-04-26T16:02:27.755Z,30.68
2019-04-26T16:05:02.637Z,30.50
2019-04-26T16:07:36.084Z,30.48
2019-04-26T16:10:09.720Z,30.38
2019-04-26T16:12:43.042Z,31.16
2019-04-26T16:15:16.616Z,31.23
2019-04-26T16:17:49.990Z,30.89
2019-04-26T16:20:23.390Z,31.52
2019-04-26T16:23:00.313Z,31.29
2019-04-26T16:25:34.344Z,31.10
2019-04-26T16:28:24.311Z,31.26
2019-04-26T16:31:06.676Z,31.35
2019-04-26T16:33:41.121Z,31.72
2019-04-26T16:36:14.481Z,32.20
2019-04-26T16:41:27.365Z,31.87
2019-04-26T16:43:57.917Z,32.71
2019-04-26T16:46:33.303Z,32.77
2019-04-26T16:49:11.347Z,32.37
2019-04-26T16:51:43.596Z,32.51
2019-04-26T16:54:21.776Z,32.82
2019-04-26T16:56:52.606Z,33.38
2019-04-26T16:59:26.839Z,33.33
2019-04-26T17:00:30.714Z,31.90
2019-04-26T17:02:02.405Z,33.68
2019-04-26T17:04:36.378Z,33.71
2019-04-26T17:07:13.446Z,33.98
2019-04-26T17:09:58.015Z,33.83
2019-04-26T17:12:22.625Z,34.06
2019-04-26T17:14:55.858Z,34.30
2019-04-26T17:17:29.308Z,34.69
2019-04-26T17:20:02.677Z,34.62
2019-04-26T17:23:00.848Z,34.91
2019-04-26T17:25:51.348Z,34.94
2019-04-26T17:28:26.504Z,35.16
2019-04-26T17:30:59.708Z,35.14
2019-04-26T17:33:33.175Z,35.53
2019-04-26T17:36:06.686Z,35.57
2019-04-26T17:38:41.973Z,35.87
2019-04-26T17:41:15.093Z,36.21
2019-04-26T17:43:52.041Z,36.07
2019-04-26T17:46:23.381Z,36.61
2019-04-26T17:48:56.755Z,37.49
2019-04-26T17:51:35.221Z,38.35
2019-04-26T17:54:21.163Z,39.08
2019-04-26T17:56:42.016Z,39.72
2019-04-26T17:59:32.610Z,40.39
2019-04-26T18:02:00.160Z,40.61
2019-04-26T18:04:34.498Z,40.85
2019-04-26T18:07:03.849Z,40.91
2019-04-26T18:09:44.703Z,41.20
2019-04-26T18:12:12.443Z,41.52
2019-04-26T18:14:46.115Z,41.68
2019-04-26T18:17:36.447Z,41.74
2019-04-26T18:20:23.535Z,42.03
2019-04-26T18:23:01.163Z,42.27
2019-04-26T18:25:34.741Z,42.66
2019-04-26T18:28:08.825Z,42.73
2019-04-26T18:30:44.862Z,42.66
2019-04-26T18:33:24.150Z,42.62
2019-04-26T18:35:57.416Z,42.87
2019-04-26T18:38:29.543Z,43.17
2019-04-26T18:41:03.684Z,43.21
2019-04-26T18:43:37.212Z,43.38
2019-04-26T18:46:16.207Z,43.88
2019-04-26T18:48:49.574Z,44.06
2019-04-26T18:51:23.603Z,44.32
2019-04-26T18:54:18.943Z,44.22
2019-04-26T18:56:56.100Z,44.51
2019-04-26T18:59:30.462Z,44.71
2019-04-26T19:02:04.027Z,44.73
2019-04-26T19:04:37.502Z,45.01
2019-04-26T19:07:12.067Z,45.21
2019-04-26T19:09:58.957Z,45.31
2019-04-26T19:12:23.265Z,45.64
2019-04-26T19:15:22.724Z,45.97
2019-04-26T19:18:12.679Z,46.34
2019-04-26T19:21:03.518Z,46.40
2019-04-26T19:23:36.952Z,46.40
2019-04-26T19:26:13.685Z,46.47
2019-04-26T19:28:46.947Z,46.73
2019-04-26T19:31:23.854Z,46.72
2019-04-26T19:33:56.088Z,46.86
2019-04-26T19:36:32.772Z,47.18
2019-04-26T19:39:07.533Z,47.23
2019-04-26T19:41:42.424Z,47.46
2019-04-26T19:44:18.841Z,47.35
2019-04-26T19:47:08.024Z,47.28
2019-04-26T19:50:09.813Z,47.59
2019-04-26T19:53:01.803Z,47.93
2019-04-26T19:55:47.489Z,48.29
2019-04-26T19:58:22.885Z,48.42
2019-04-26T20:00:56.193Z,48.37
2019-04-26T20:03:29.558Z,48.39
2019-04-26T20:06:04.866Z,48.44
2019-04-26T20:08:44.406Z,48.60
2019-04-26T20:11:18.911Z,48.93
2019-04-26T20:13:51.920Z,48.86
2019-04-26T20:16:25.994Z,49.19
2019-04-26T20:18:59.762Z,49.66
2019-04-26T20:21:34.543Z,50.02
2019-04-26T20:24:07.957Z,50.30
2019-04-26T20:26:44.277Z,50.29
2019-04-26T20:29:16.479Z,50.19
2019-04-26T20:32:05.230Z,50.17
2019-04-26T20:34:38.887Z,50.25
2019-04-26T20:37:16.184Z,51.31
2019-04-26T20:39:55.770Z,51.51
2019-04-26T20:42:31.617Z,51.51
2019-04-26T20:45:11.307Z,51.28
2019-04-26T20:47:46.782Z,52.72
2019-04-26T20:50:21.661Z,52.54
2019-04-26T20:53:00.581Z,52.20
2019-04-26T20:55:34.486Z,52.08
2019-04-26T20:58:08.614Z,51.51
2019-04-26T21:00:53.680Z,51.01
2019-04-26T21:03:23.844Z,50.77
2019-04-26T21:05:58.834Z,51.10
2019-04-26T21:08:27.167Z,50.89
2019-04-26T21:11:01.707Z,51.28
2019-04-26T21:13:35.531Z,51.58
2019-04-26T21:16:10.753Z,51.48
2019-04-26T21:18:44.474Z,51.79
2019-04-26T21:21:17.982Z,50.42
2019-04-26T21:23:51.863Z,50.02
2019-04-26T21:26:46.643Z,49.30
2019-04-26T21:29:27.056Z,49.45
2019-04-26T21:32:35.439Z,49.34
2019-04-26T21:35:13.540Z,49.13
2019-04-26T21:37:59.665Z,49.50
2019-04-26T21:40:38.399Z,49.57
2019-04-26T21:43:17.620Z,50.49
2019-04-26T21:46:14.347Z,51.56
2019-04-26T21:48:44.715Z,50.12
2019-04-26T21:51:23.037Z,49.66
2019-04-26T21:54:00.814Z,49.77
2019-04-26T21:56:36.032Z,49.85
2019-04-26T21:59:13.871Z,49.85
2019-04-26T22:01:52.689Z,50.05
2019-04-26T22:04:28.934Z,50.32
2019-04-26T22:07:07.517Z,50.58
2019-04-26T22:09:55.091Z,50.55
2019-04-26T22:12:31.272Z,51.62
2019-04-26T22:15:21.461Z,52.01
2019-04-26T22:17:57.876Z,51.58
2019-04-26T22:20:35.633Z,51.17
2019-04-26T22:23:34.177Z,50.88
2019-04-26T22:26:09.477Z,51.15
2019-04-26T22:28:49.531Z,51.36
2019-04-26T22:31:33.731Z,51.54
2019-04-26T22:34:09.600Z,51.96
2019-04-26T22:36:43.853Z,52.47
2019-04-26T22:39:20.906Z,52.20
2019-04-26T22:41:54.166Z,52.36
2019-04-26T22:44:40.816Z,51.84
2019-04-26T22:47:24.144Z,51.95
2019-04-26T22:49:58.880Z,52.38
2019-04-26T22:52:33.483Z,52.61
2019-04-26T22:55:07.774Z,53.05
2019-04-26T22:57:41.020Z,53.48
2019-04-26T23:00:15.023Z,53.79
2019-04-26T23:02:50.036Z,54.29
2019-04-26T23:05:23.393Z,54.35
2019-04-26T23:07:59.341Z,54.40
2019-04-26T23:10:39.144Z,54.49
2019-04-26T23:13:23.182Z,54.86
2019-04-26T23:16:11.212Z,54.80
2019-04-26T23:18:51.567Z,54.97
2019-04-26T23:24:27.652Z,55.59
2019-04-26T23:27:00.784Z,55.53
2019-04-26T23:29:34.008Z,56.31
2019-04-26T23:32:07.419Z,56.67
2019-04-26T23:34:40.907Z,57.00
2019-04-26T23:37:14.153Z,57.51
2019-04-26T23:39:49.759Z,57.69
2019-04-26T23:42:23.263Z,59.00
2019-04-26T23:44:57.050Z,59.65
2019-04-26T23:47:31.935Z,59.26
2019-04-26T23:50:05.380Z,59.78
2019-04-26T23:52:40.546Z,60.74
2019-04-26T23:55:13.781Z,61.15
2019-04-26T23:57:47.028Z,61.69
